Terminal Aerodrome Forecast
Issued by NWS

Home | Current Version | Previous Version | Text Only | Print | Product List | Glossary Off
Versions: 1 2 3 4 5 6 7 8 9 10 11 12 13 14 15 16

392
FTUS42 KMHX 201722
TAFOAJ
TAF
KOAJ 201722Z 2018/2118 24007KT P6SM SCT050
     FM210800 VRB03KT 5SM BR SCT080
     FM211200 33004KT P6SM SCT040 BKN070
      AMD LTD TO CLD VIS AND WIND=

USA.gov is the U.S. government's official web portal to all federal, state and local government web resources and services.